Amit David

Scout - Maccabi Haifa
22 Jun 2028
Thursday
Process

Personality

Adaptability (20) Ambition (7) Controversy (2) Loyalty (13) Pressure (19) Professionalism (12) Sportsmanship (8) Temperament (17)

Profile

Coaching Style Democratic
License Continental C
Determination 4
Man Management 9
Motivating 10
Discipline 10
Job Satisfaction
100%
Fatigue
0%
Role Scout
Wage 26.3K p/w
Contract 14.03.2030

Performance

Behaviour Good
Training Effectiveness
51%
Player Development
55%
Injury Prevention
25%
Tactical Implementation
50%

Recent Events

Assessed a player now
Attended a recruitment meeting now
Recommended a transfer target now
Recommended a transfer target now
Recommended a transfer target now
Recommended a transfer target now
Assessed a player now
Assessed a player 7d ago

Currently Monitoring

109
Player Club Status Ability Confidence Watched Last Observed Latest Vote
Maxim Radchenko Rostov Active 95 / 90 40% 2 21.06.2028 -
Jack Shorrock Port Vale Active 107 / 109 40% 4 21.06.2028 -
Adem Avdić TSC Negotiating 115 / 107 40% 3 21.06.2028 -
Jamie Wähling Marsaxlokk Active 92 / 100 40% 3 20.06.2028 -
Federico Nardin Alcione Milano Active 96 / 115 40% 3 20.06.2028 -
Mattia Mannini Juve Stabia Active 116 / 128 40% 2 20.06.2028 -
Jenson Jones Penafiel Active 104 / 112 40% 2 19.06.2028 -
Kaiden Moore ES Mostaganem Active 93 / 99 40% 1 19.06.2028 -
Lautaro Dufur Rentistas Active 105 / 102 40% 1 19.06.2028 -
Axel Tape TSG Hoffenheim Active 140 / 142 40% 3 18.06.2028 -
Denys Smetana Metalurh Zaporizhzhia Active 100 / 102 40% 1 18.06.2028 -
Ronwen Mabunda Platinum Stars Active 86 / 83 40% 3 17.06.2028 -
Bernardo Lima Porto Active 114 / 117 40% 2 17.06.2028 -
Amine Boukamir Westerlo Active 107 / 115 40% 1 17.06.2028 -
Gideon Manaseh Ikorodu City Active 99 / 96 40% 2 16.06.2028 -
David Damboama El-Kanemi Warriors Active 81 / 93 40% 2 16.06.2028 -
Pape Cabral Monaco Active 123 / 118 40% 1 16.06.2028 -
Kwadwo Atiemo Wa All Stars Active 87 / 88 40% 1 15.06.2028 -
Joe Emery Salford City Active 96 / 92 40% 1 15.06.2028 -
Daniel Banjaqui Benfica Active 124 / 135 40% 6 14.06.2028 -
Lewi Richards Walsall Active 94 / 98 40% 1 14.06.2028 -
Bade Aluko Leicester City Active 127 / 119 40% 1 13.06.2028 -
Rafael Mota Sporting CP Active 106 / 109 40% 1 13.06.2028 -
Naoufel Zerhouni Maccabi Tel Aviv Active 116 / 111 83% 1 12.06.2028 Approve
Mohamed Bendary ENPPI Active 88 / 95 40% 1 12.06.2028 -
Mattia Puzone Siracusa Active 104 / 111 40% 1 11.06.2028 -
Noa Mikić HNK Gorica Active 121 / 113 40% 1 11.06.2028 -
Daniel Paraschiv Bnei Sakhnin Lost 122 / 129 83% 1 07.06.2028 -
Aymeris Ligeon Vizela Active 87 / 99 40% 1 06.06.2028 -
João Brito Porto Active 100 / 109 40% 1 05.06.2028 -
Filipe Sousa Porto Active 108 / 114 40% 2 03.06.2028 -
Tobías Ramírez River Plate Active 128 / 133 40% 1 03.06.2028 -
Denis Grigorjev Arsenal Tula Active 92 / 101 40% 1 02.06.2028 -
Emiliano Zambrano Gimnasia y Esgrima Active 93 / 93 40% 3 31.01.2028 -
Matheus Davó Maccabi Netanya Active 126 / 119 79% 1 31.01.2028 Approve
Kutlwano Letlhaku Ajax Cape Town Active 120 / 125 40% 1 31.01.2028 -
Eduardo Fernandes Benfica Active 123 / 125 40% 1 31.01.2028 -
Honest Ahanor Udinese Active 137 / 139 40% 1 27.01.2028 -
Romuald Sawadogo Hapoel Raanana Active 103 / 104 40% 3 25.01.2028 -
Jan Bürger Burton Albion Active 114 / 125 40% 2 25.01.2028 -
Salvador Blopá Sporting CP Active 116 / 119 40% 2 24.01.2028 -
Nahuel Leivas Montevideo City Torque Active 106 / 114 40% 1 23.01.2028 -
Miguel Figueiredo Benfica Active 109 / 132 40% 3 20.01.2028 -
Bradel Kiwa Monaco Active 128 / 121 40% 2 10.01.2028 -
Hian Rincón Once Caldas Active 91 / 97 40% 1 10.01.2028 -
Martim Cunha Porto Active 114 / 115 40% 4 07.01.2028 -
Juan Manuel Villalba Estudiantes Active 120 / 124 40% 2 07.01.2028 -
Naor Sabag Hapoel Haifa Active 107 / 101 79% 1 07.01.2028 Approve
Matvey Bardachev Zenit Active 105 / 120 40% 1 06.01.2028 -
Evgeniy Novykh Vitebsk Active 90 / 78 40% 1 06.01.2028 -
Juan Giménez Rosario Central Active 120 / 124 40% 1 04.01.2028 -
Makar Kuznetsov Zugdidi Active 83 / 75 40% 1 04.01.2028 -
Jair Collahuazo Kudrivka Active 109 / 103 40% 1 04.01.2028 -
Amos Nondi Bali United Active 103 / 113 40% 1 03.01.2028 -
Leonel Pollacchi San Telmo Active 116 / 118 40% 1 03.01.2028 -
Malte Hallin GIF Sundsvall Active 89 / 103 40% 1 30.08.2027 -
Caleb Yirenkyi Coventry City Active 138 / 145 40% 1 30.08.2027 -
Victor Ehibe Barau Active 82 / 87 40% 1 30.08.2027 -
Matías Canedo Rampla Juniors Active 85 / 96 40% 1 23.08.2027 -
Tiziano Cabrera Central Norte Active 84 / 90 40% 3 19.08.2027 -
Francisco Burgio Oriental Active 81 / 89 40% 1 19.08.2027 -
Mateo Ostachi Alvarado Active 90 / 95 40% 3 18.08.2027 -
Lucas Pyziak Vélez Active 105 / 106 40% 1 18.08.2027 -
Tobia Mogentale Altamura Active 91 / 113 40% 1 18.08.2027 -
Agustín Medina River Plate Active 115 / 134 40% 1 17.08.2027 -
Timofey Tkachev Baranovichi Active 82 / 89 40% 1 17.08.2027 -
Hassan Beja AFC Leopards Active 81 / 97 40% 5 16.08.2027 -
Maren Kefas Plateau United Active 86 / 90 40% 3 16.08.2027 -
Simón Bodnar River Plate Active 114 / 126 40% 1 16.08.2027 -
Dennis Konney US Bougouba Active 75 / 98 40% 2 15.08.2027 -
Tiago Gordillo San Miguel Active 85 / 95 40% 2 15.08.2027 -
Yaroslav Matyukhin Alashkert Active 106 / 107 40% 1 15.08.2027 -
Alin Kumer Čelik Genoa Active 103 / 96 40% 1 14.08.2027 -
Nicolás Ferreira Artigas Active 76 / 92 40% 1 13.08.2027 -
Benjamin Merba Foullah Edifice Active 78 / 73 40% 1 13.08.2027 -
Andrés Cuenca Como Active 105 / 113 40% 1 11.08.2027 -
Matías Gómez Independiente Active 108 / 118 40% 1 11.08.2027 -
Daniel Awuni Aduana Stars Active 95 / 97 40% 3 09.08.2027 -
Mirko Bruno Vélez Active 104 / 115 40% 1 09.08.2027 -
Nathan Doualla Canon Yaounde Active 93 / 91 40% 4 06.08.2027 -
Román Barrios Patronato Active 89 / 94 40% 2 04.08.2027 -
Iwan Henstra Cambuur Active 92 / 112 40% 7 31.07.2027 -
Federico Coletta Benfica Active 104 / 115 40% 1 31.07.2027 -
Ryunosuke Sato Valencia Active 125 / 127 40% 4 30.07.2027 -
Asanele Bonani Chippa United Active 100 / 92 40% 3 26.07.2027 -
Chris Martínez Atletico Venezuela Active 82 / 88 40% 1 26.07.2027 -
Lautaro Millán Independiente Active 120 / 133 40% 5 25.07.2027 -
Ramiro Jara Racing Active 81 / 99 40% 1 25.07.2027 -
Joel Medina Osasuna Active 114 / 133 40% 3 23.07.2027 -
Manu Rodríguez Gijón Active 109 / 114 40% 1 23.07.2027 -
Rafik el Arguioui Utrecht Active 116 / 118 40% 1 20.07.2027 -
Daren Mosengo Le Havre AC Active 105 / 126 40% 1 19.07.2027 -
Miguel Di Pizio Western Sydney Wanderers Active 108 / 110 40% 4 15.07.2027 -
Paulo Cardoso Sporting CP Active 102 / 97 40% 1 13.07.2027 -
Yegor Gulyaev Chaika Active 78 / 93 40% 2 12.07.2027 -
Luca Maiorano Pro Patria Active 98 / 109 40% 3 08.07.2027 -
Leonel Jaime River Plate Active 113 / 117 40% 3 08.07.2027 -
Adam Wierzbicki Khimik Active 88 / 94 40% 2 06.07.2027 -
Mattia Della Rocca Vicenza Active 98 / 96 40% 1 29.06.2027 -
Noah Maieroni Brisbane Roar Active 100 / 109 40% 1 26.06.2027 -
Molemo Seemela Zvezda Active 84 / 69 40% 1 26.06.2027 -
Nupe Godstime Bayelsa United Active 79 / 95 40% 1 22.06.2027 -
Nikita Posmashny Chaika Active 83 / 80 40% 1 21.06.2027 -
Mads Abrahamsen Druzhba Active 84 / 103 40% 1 19.06.2027 -
Borna Knezović Casarano Active 110 / 116 40% 1 17.06.2027 -
Alexis Fretes Libertad Active 107 / 110 40% 1 07.06.2027 -
José Cortés Maccabi Petach Tikva Active 112 / 105 79% 1 02.06.2027 Approve
Matías Pellegrini Vélez Active 122 / 122 40% 1 17.08.2026 -
Manfred Fischer Austria Wien Active 123 / 136 40% 1 17.08.2026 -